Time;durP1;ratioP1;P1;durP2;ratioP2;P2;SDS_P1;SDS_P2;PMS_P1;PMS_P2;Temp;Humidity;BMP_temperature;BMP_pressure;BME280_temperature;BME280_humidity;BME280_pressure;Samples;Min_cycle;Max_cycle;Signal;HPM_P1;HPM_P2
2022/11/15 00:02:27;;;;;;;0.60;0.60;;;8.00;99.90;;;;;;5071007;28;20195;-49
2022/11/15 00:04:55;;;;;;;0.80;0.70;;;8.00;99.90;;;;;;5068068;28;20258;-50
2022/11/15 00:07:22;;;;;;;0.50;0.50;;;8.00;99.90;;;;;;5070284;28;20257;-49
2022/11/15 00:09:49;;;;;;;0.50;0.50;;;8.00;99.90;;;;;;5069379;28;20203;-50
2022/11/15 00:12:16;;;;;;;0.87;0.60;;;8.00;99.90;;;;;;5069350;28;20638;-50
2022/11/15 00:14:43;;;;;;;0.70;0.70;;;8.00;99.90;;;;;;5070334;28;20710;-49
2022/11/15 00:17:10;;;;;;;1.37;0.70;;;8.10;99.90;;;;;;5071031;28;20272;-50
2022/11/15 00:19:37;;;;;;;1.40;0.77;;;8.00;99.90;;;;;;5068111;28;20257;-50
2022/11/15 00:22:06;;;;;;;0.60;0.60;;;8.00;99.90;;;;;;5068529;28;20269;-50
2022/11/15 00:24:32;;;;;;;0.50;0.50;;;7.90;99.90;;;;;;5066135;28;20258;-49
2022/11/15 00:26:59;;;;;;;0.70;0.70;;;7.90;99.90;;;;;;5070996;28;20252;-49
2022/11/15 00:29:26;;;;;;;1.20;0.90;;;7.80;99.90;;;;;;5070932;28;20236;-50
2022/11/15 00:31:54;;;;;;;0.60;0.60;;;7.70;99.90;;;;;;5070824;28;20324;-50
2022/11/15 00:34:21;;;;;;;1.37;1.20;;;7.70;99.90;;;;;;5067213;28;20198;-49
2022/11/15 00:36:48;;;;;;;1.73;1.63;;;7.60;99.90;;;;;;5068410;28;20211;-50
2022/11/15 00:39:16;;;;;;;3.70;2.67;;;7.60;99.90;;;;;;5070565;28;20200;-49
2022/11/15 00:41:43;;;;;;;3.73;3.27;;;7.50;99.90;;;;;;5067347;28;20253;-49
2022/11/15 00:44:10;;;;;;;5.10;4.20;;;7.50;99.90;;;;;;5069860;28;20212;-50
2022/11/15 00:46:37;;;;;;;4.20;3.03;;;7.50;99.90;;;;;;5069570;28;20238;-49
2022/11/15 00:49:04;;;;;;;8.20;5.90;;;7.50;99.90;;;;;;5066586;28;20193;-49
2022/11/15 00:51:31;;;;;;;12.43;7.90;;;7.40;99.90;;;;;;5064181;28;20211;-49
2022/11/15 00:53:58;;;;;;;13.87;8.83;;;7.40;99.90;;;;;;5068176;28;20202;-50
2022/11/15 00:56:26;;;;;;;11.17;7.57;;;7.50;99.90;;;;;;5069525;28;20224;-49
2022/11/15 00:58:53;;;;;;;10.40;8.47;;;7.50;99.90;;;;;;5058272;28;20254;-49
2022/11/15 01:01:20;;;;;;;9.33;7.30;;;7.60;99.90;;;;;;5069313;28;20252;-49
2022/11/15 01:03:47;;;;;;;11.63;8.27;;;7.60;99.90;;;;;;5069743;28;20640;-49
2022/11/15 01:06:14;;;;;;;9.70;7.57;;;7.70;99.90;;;;;;5069468;28;20575;-49
2022/11/15 01:08:41;;;;;;;10.37;8.43;;;7.60;99.90;;;;;;5065988;28;20672;-49
2022/11/15 01:11:11;;;;;;;13.30;9.60;;;7.60;99.90;;;;;;5070468;28;20207;-49
2022/11/15 01:13:40;;;;;;;13.37;8.57;;;7.60;99.90;;;;;;5067509;28;20238;-49
2022/11/15 01:16:09;;;;;;;13.37;7.87;;;7.70;99.90;;;;;;5069120;28;20218;-49
2022/11/15 01:18:36;;;;;;;11.27;7.23;;;7.70;99.90;;;;;;5070507;28;20671;-49
2022/11/15 01:21:06;;;;;;;9.77;7.83;;;7.60;99.90;;;;;;5069631;28;20198;-49
2022/11/15 01:23:34;;;;;;;11.33;6.37;;;7.60;99.90;;;;;;5064601;28;20708;-49
2022/11/15 01:26:01;;;;;;;10.13;7.17;;;7.60;99.90;;;;;;5069910;28;20241;-49
2022/11/15 01:28:31;;;;;;;6.97;5.80;;;7.60;99.90;;;;;;5068770;28;20200;-49
2022/11/15 01:31:00;;;;;;;10.87;6.57;;;7.50;99.90;;;;;;5066703;28;20432;-49
2022/11/15 01:33:27;;;;;;;8.13;6.47;;;7.40;99.90;;;;;;5068352;28;20211;-49
2022/11/15 01:35:54;;;;;;;6.50;5.07;;;7.30;99.90;;;;;;5069921;28;20314;-49
2022/11/15 01:38:22;;;;;;;5.47;4.80;;;7.10;99.90;;;;;;5069240;28;20203;-50
2022/11/15 01:40:49;;;;;;;5.87;4.77;;;7.10;99.90;;;;;;5069864;28;20205;-49
2022/11/15 01:43:25;;;;;;;6.17;5.57;;;7.00;99.90;;;;;;5068657;28;20210;-49
2022/11/15 01:45:57;;;;;;;6.93;4.60;;;6.90;99.90;;;;;;5063783;28;20298;-49
2022/11/15 01:48:31;;;;;;;5.27;4.77;;;6.90;99.90;;;;;;5073426;28;20210;-49
2022/11/15 01:50:58;;;;;;;7.50;4.03;;;6.80;99.90;;;;;;5073698;28;20220;-49
2022/11/15 01:53:27;;;;;;;3.70;3.40;;;6.90;99.90;;;;;;5072973;28;20694;-49
2022/11/15 01:55:55;;;;;;;4.57;3.33;;;6.90;99.90;;;;;;5073511;28;20213;-49
2022/11/15 01:58:22;;;;;;;3.97;3.63;;;6.90;99.90;;;;;;5070787;28;20618;-49
2022/11/15 02:00:51;;;;;;;3.73;3.53;;;6.80;99.90;;;;;;5072790;28;20202;-49
2022/11/15 02:03:18;;;;;;;5.60;3.20;;;6.80;99.90;;;;;;5064239;28;20206;-49
2022/11/15 02:05:46;;;;;;;4.00;2.77;;;6.70;99.90;;;;;;5072902;28;20233;-49
2022/11/15 02:08:19;;;;;;;5.17;3.40;;;6.70;99.90;;;;;;5072289;28;20210;-48
2022/11/15 02:10:46;;;;;;;4.37;3.97;;;6.50;99.90;;;;;;5072056;28;20199;-49
2022/11/15 02:13:15;;;;;;;11.67;4.60;;;6.40;99.90;;;;;;5069397;28;20209;-49
2022/11/15 02:15:49;;;;;;;5.53;3.80;;;6.30;99.90;;;;;;5071363;28;20674;-49
2022/11/15 02:18:24;;;;;;;5.30;4.90;;;6.30;99.90;;;;;;5068463;28;20205;-50
2022/11/15 02:21:17;;;;;;;5.00;4.43;;;6.20;99.90;;;;;;5072990;28;20205;-49
2022/11/15 02:24:25;;;;;;;5.87;5.30;;;6.10;99.90;;;;;;5070196;28;20256;-49
2022/11/15 02:27:21;;;;;;;7.77;6.97;;;6.10;99.90;;;;;;5062767;28;20202;-49
2022/11/15 02:30:19;;;;;;;10.13;9.07;;;6.20;99.90;;;;;;5071796;28;20195;-49
2022/11/15 02:32:52;;;;;;;12.00;9.00;;;6.40;99.90;;;;;;5072275;28;20201;-49
2022/11/15 02:35:27;;;;;;;12.53;10.33;;;6.50;99.90;;;;;;5072020;28;20225;-48
2022/11/15 02:37:58;;;;;;;15.50;11.43;;;6.50;99.90;;;;;;5065803;28;20213;-49
2022/11/15 02:40:35;;;;;;;16.13;10.50;;;6.50;99.90;;;;;;5071758;28;20210;-48
2022/11/15 02:46:01;;;;;;;14.33;11.80;;;6.40;99.90;;;;;;5063452;28;20737;-50
2022/11/15 02:48:31;;;;;;;18.07;14.77;;;6.40;99.90;;;;;;5070458;28;20419;-51
2022/11/15 02:51:00;;;;;;;17.57;13.00;;;6.50;99.90;;;;;;5068440;28;20208;-53
2022/11/15 02:53:27;;;;;;;16.60;12.80;;;6.40;99.90;;;;;;5066188;28;20293;-52
2022/11/15 02:55:55;;;;;;;18.60;13.27;;;6.40;99.90;;;;;;5072003;28;20215;-51
2022/11/15 02:58:58;;;;;;;14.77;11.83;;;6.50;99.90;;;;;;5071275;28;20210;-52
2022/11/15 03:01:39;;;;;;;15.23;11.80;;;6.60;99.90;;;;;;5066033;28;20289;-52
2022/11/15 03:04:27;;;;;;;16.47;11.60;;;6.70;99.90;;;;;;5063531;28;20778;-51
2022/11/15 03:07:01;;;;;;;44.57;12.47;;;6.70;99.90;;;;;;5073538;28;20260;-50
2022/11/15 03:09:36;;;;;;;15.17;12.30;;;6.70;99.90;;;;;;5078575;28;20209;-50
2022/11/15 03:12:08;;;;;;;15.97;12.43;;;6.70;99.90;;;;;;5077348;28;20245;-51
2022/11/15 03:14:38;;;;;;;12.70;11.37;;;6.70;99.90;;;;;;5068129;28;20231;-52
2022/11/15 03:17:16;;;;;;;14.70;12.27;;;6.60;99.90;;;;;;5063984;28;20196;-52
2022/11/15 03:19:47;;;;;;;12.73;11.43;;;6.60;99.90;;;;;;5071808;28;20205;-52
2022/11/15 03:22:19;;;;;;;14.77;12.17;;;6.60;99.90;;;;;;5071827;28;20209;-52
2022/11/15 03:24:48;;;;;;;15.97;12.80;;;6.60;99.90;;;;;;5070598;28;20230;-52
2022/11/15 03:27:20;;;;;;;13.80;11.33;;;6.60;99.90;;;;;;5070682;28;20206;-52
2022/11/15 03:29:52;;;;;;;12.07;10.57;;;6.60;99.90;;;;;;5066751;28;20222;-52
2022/11/15 03:32:24;;;;;;;13.90;11.50;;;6.60;99.90;;;;;;5071530;28;20208;-52
2022/11/15 03:34:58;;;;;;;12.83;10.40;;;6.60;99.90;;;;;;5070675;28;20741;-52
2022/11/15 03:37:31;;;;;;;14.77;12.07;;;6.60;99.90;;;;;;5071256;28;20205;-53
2022/11/15 03:39:58;;;;;;;14.50;12.83;;;6.60;99.90;;;;;;5067648;28;20684;-52
2022/11/15 03:42:31;;;;;;;13.63;11.47;;;6.60;99.90;;;;;;5070537;28;20666;-52
2022/11/15 03:45:04;;;;;;;13.57;10.87;;;6.60;99.90;;;;;;5069341;28;20240;-51
2022/11/15 03:47:35;;;;;;;11.97;10.30;;;6.60;99.90;;;;;;5071196;28;20218;-52
2022/11/15 03:50:09;;;;;;;12.83;10.53;;;6.60;99.90;;;;;;5071050;28;20210;-52
2022/11/15 03:52:37;;;;;;;12.57;10.60;;;6.60;99.90;;;;;;5062104;28;20554;-52
2022/11/15 03:55:07;;;;;;;13.87;11.33;;;6.60;99.90;;;;;;5064975;28;20210;-52
2022/11/15 03:57:34;;;;;;;15.57;11.60;;;6.60;99.90;;;;;;5069337;28;20251;-52
2022/11/15 04:00:01;;;;;;;21.13;11.10;;;6.60;99.90;;;;;;5069481;28;20203;-51
2022/11/15 04:02:28;;;;;;;11.93;10.63;;;6.60;99.90;;;;;;5070741;28;20198;-52
2022/11/15 04:04:55;;;;;;;12.93;10.63;;;6.60;99.90;;;;;;5069061;28;20233;-52
2022/11/15 04:07:23;;;;;;;14.47;10.70;;;6.60;99.90;;;;;;5070829;28;20199;-52
2022/11/15 04:10:02;;;;;;;20.70;11.23;;;6.60;99.90;;;;;;5070690;28;20207;-52
2022/11/15 04:12:32;;;;;;;11.83;10.63;;;6.60;99.90;;;;;;5069469;28;20228;-51
2022/11/15 04:15:08;;;;;;;11.97;10.27;;;6.60;99.90;;;;;;5066089;28;20246;-51
2022/11/15 04:17:37;;;;;;;12.50;11.20;;;6.50;99.90;;;;;;5069296;28;20206;-52
2022/11/15 04:25:38;;;;;;;16.63;11.43;;;6.30;99.90;;;;;;5067736;28;20242;-51
2022/11/15 04:28:05;;;;;;;11.60;10.20;;;6.30;99.90;;;;;;5069452;28;20699;-51
2022/11/15 04:30:32;;;;;;;12.67;10.00;;;6.30;99.90;;;;;;5069394;28;20202;-53
2022/11/15 04:32:59;;;;;;;13.37;10.87;;;6.20;99.90;;;;;;5069845;28;20191;-55
2022/11/15 04:35:26;;;;;;;10.87;9.77;;;6.10;99.90;;;;;;5064596;28;20226;-51
2022/11/15 04:37:54;;;;;;;18.90;12.83;;;6.10;99.90;;;;;;5067777;28;20240;-51
2022/11/15 04:40:21;;;;;;;25.70;15.17;;;6.00;99.90;;;;;;5070091;28;20732;-51
2022/11/15 04:42:48;;;;;;;23.87;13.87;;;5.80;99.90;;;;;;5069564;28;20206;-52
2022/11/15 04:45:15;;;;;;;15.50;10.97;;;5.70;99.90;;;;;;5066183;28;20227;-52
2022/11/15 04:47:44;;;;;;;14.23;10.23;;;5.70;99.90;;;;;;5070211;28;20240;-52
2022/11/15 04:50:13;;;;;;;10.20;8.87;;;5.60;99.90;;;;;;5058405;28;20293;-52
2022/11/15 04:52:42;;;;;;;10.40;9.30;;;5.60;99.90;;;;;;5050210;28;20215;-51
2022/11/15 04:55:11;;;;;;;9.53;8.57;;;5.50;99.90;;;;;;5061372;28;20272;-51
2022/11/15 04:57:39;;;;;;;9.37;8.57;;;5.40;99.90;;;;;;5061140;28;20209;-52
2022/11/15 05:00:12;;;;;;;36.93;19.67;;;5.30;99.90;;;;;;5052187;28;20639;-52
2022/11/15 05:05:25;;;;;;;39.57;20.57;;;5.10;99.90;;;;;;5069911;28;20320;-52
2022/11/15 05:07:52;;;;;;;26.43;15.47;;;5.10;99.90;;;;;;5070244;28;20200;-53
2022/11/15 05:10:20;;;;;;;9.97;8.97;;;5.00;99.90;;;;;;5070413;28;20203;-51
2022/11/15 05:12:48;;;;;;;10.37;8.90;;;5.00;99.90;;;;;;5070838;28;20673;-52
2022/11/15 05:15:15;;;;;;;10.83;9.73;;;5.00;99.90;;;;;;5063016;28;20700;-51
2022/11/15 05:17:42;;;;;;;11.47;9.80;;;5.00;99.90;;;;;;5064587;28;20210;-52
2022/11/15 05:20:10;;;;;;;17.97;13.43;;;4.90;99.90;;;;;;5069222;28;20208;-52
2022/11/15 05:22:38;;;;;;;15.00;12.03;;;4.90;99.90;;;;;;5073823;28;20233;-52
2022/11/15 05:25:06;;;;;;;11.80;9.97;;;4.80;99.90;;;;;;5064314;28;20595;-52
2022/11/15 05:27:35;;;;;;;10.17;9.17;;;4.70;99.90;;;;;;5069473;28;20217;-52
2022/11/15 05:30:02;;;;;;;10.40;9.30;;;4.70;99.90;;;;;;5054492;28;20235;-53
2022/11/15 05:32:30;;;;;;;9.87;8.87;;;4.80;99.90;;;;;;5068771;28;20208;-52
2022/11/15 05:34:57;;;;;;;10.33;9.33;;;4.80;99.90;;;;;;5072773;28;20223;-51
2022/11/15 05:37:24;;;;;;;10.00;9.10;;;4.80;99.90;;;;;;5070239;28;20571;-52
2022/11/15 05:39:51;;;;;;;9.57;8.57;;;4.80;99.90;;;;;;5068360;28;20294;-52
2022/11/15 05:42:19;;;;;;;9.73;8.47;;;4.70;99.90;;;;;;5073284;28;20570;-52
2022/11/15 05:44:50;;;;;;;9.97;8.90;;;4.60;99.90;;;;;;5072190;28;20581;-52
2022/11/15 05:47:21;;;;;;;11.00;9.87;;;4.60;99.90;;;;;;5072757;28;20259;-52
2022/11/15 05:49:52;;;;;;;10.47;9.43;;;4.70;99.90;;;;;;5070882;28;20203;-50
2022/11/15 05:52:23;;;;;;;9.70;8.70;;;4.60;99.90;;;;;;5068997;28;20253;-53
2022/11/15 05:54:51;;;;;;;9.83;8.77;;;4.50;99.90;;;;;;5064619;28;20228;-52
2022/11/15 05:57:18;;;;;;;9.97;9.17;;;4.50;99.90;;;;;;5069765;28;20576;-52
2022/11/15 05:59:47;;;;;;;12.03;7.53;;;4.40;99.90;;;;;;5057693;28;20199;-53
2022/11/15 06:02:14;;;;;;;7.50;6.70;;;4.30;99.90;;;;;;5066466;28;20223;-51
2022/11/15 06:04:41;;;;;;;6.87;6.37;;;4.30;99.90;;;;;;5060412;28;20258;-51
2022/11/15 06:07:08;;;;;;;7.20;6.60;;;4.30;99.90;;;;;;5071192;28;20204;-52
2022/11/15 06:09:35;;;;;;;10.07;8.27;;;4.30;99.90;;;;;;5069540;28;20288;-52
2022/11/15 06:12:02;;;;;;;9.37;8.50;;;4.20;99.90;;;;;;5063286;28;20653;-51
2022/11/15 06:14:29;;;;;;;8.70;7.90;;;4.20;99.90;;;;;;5072505;28;20252;-51
2022/11/15 06:16:58;;;;;;;8.67;7.27;;;4.10;99.90;;;;;;5072535;28;20203;-51
2022/11/15 06:19:25;;;;;;;12.40;9.43;;;4.20;99.90;;;;;;5068566;28;20232;-51
2022/11/15 06:21:52;;;;;;;15.97;12.23;;;4.10;99.90;;;;;;5065352;28;20286;-51
2022/11/15 06:24:20;;;;;;;13.37;10.67;;;4.20;99.90;;;;;;5065085;28;20214;-52
2022/11/15 06:26:47;;;;;;;15.20;11.40;;;4.20;99.90;;;;;;5066527;28;20232;-51
2022/11/15 06:29:14;;;;;;;12.97;9.87;;;4.10;99.90;;;;;;5068870;28;20256;-52
2022/11/15 06:31:42;;;;;;;15.13;10.53;;;4.20;99.90;;;;;;5068980;28;20296;-51
2022/11/15 06:34:10;;;;;;;28.27;17.87;;;4.30;99.90;;;;;;5064288;28;20215;-52
2022/11/15 06:36:38;;;;;;;38.10;24.73;;;4.30;99.90;;;;;;5069956;28;20231;-51
2022/11/15 06:39:05;;;;;;;30.07;20.97;;;4.40;99.90;;;;;;5067066;28;20719;-51
2022/11/15 06:41:35;;;;;;;28.70;21.53;;;4.30;99.90;;;;;;5071409;28;20209;-51
2022/11/15 06:44:02;;;;;;;25.00;17.43;;;4.20;99.90;;;;;;5063106;28;20666;-52
2022/11/15 06:46:29;;;;;;;23.23;16.03;;;4.30;99.90;;;;;;5071948;28;20242;-51
2022/11/15 06:48:56;;;;;;;20.50;15.77;;;4.30;99.90;;;;;;5071724;28;20265;-52
2022/11/15 06:51:25;;;;;;;22.57;14.93;;;4.30;99.90;;;;;;5069672;28;20203;-51
2022/11/15 06:53:52;;;;;;;19.90;14.83;;;4.20;99.90;;;;;;5066433;28;20717;-52
2022/11/15 06:56:19;;;;;;;16.10;13.60;;;4.30;99.90;;;;;;5068500;28;20225;-51
2022/11/15 06:58:46;;;;;;;18.70;13.73;;;4.30;99.90;;;;;;5072037;28;20203;-52
2022/11/15 07:01:14;;;;;;;13.27;11.80;;;4.20;99.90;;;;;;5066363;28;20290;-51
2022/11/15 07:03:42;;;;;;;16.50;13.90;;;4.30;99.90;;;;;;5069537;28;20206;-52
2022/11/15 07:06:10;;;;;;;19.00;14.80;;;4.30;99.90;;;;;;5069493;28;20293;-52
2022/11/15 07:08:38;;;;;;;18.80;15.37;;;4.30;99.90;;;;;;5071916;28;20203;-52
2022/11/15 07:11:08;;;;;;;19.80;17.10;;;4.40;99.90;;;;;;5071079;28;20252;-52
2022/11/15 07:13:37;;;;;;;21.17;18.73;;;4.40;99.90;;;;;;5079378;28;20209;-52
2022/11/15 07:16:05;;;;;;;18.13;16.23;;;4.40;99.90;;;;;;5067284;28;20253;-51
2022/11/15 07:18:32;;;;;;;16.87;14.97;;;4.40;99.90;;;;;;5070141;28;20263;-51
2022/11/15 07:21:02;;;;;;;68.37;37.60;;;4.50;99.90;;;;;;5070226;28;20846;-51
2022/11/15 07:23:29;;;;;;;38.20;24.73;;;4.60;99.90;;;;;;5064838;28;20607;-51
2022/11/15 07:25:59;;;;;;;39.57;26.30;;;4.70;99.90;;;;;;5062143;28;20283;-52
2022/11/15 07:28:26;;;;;;;27.87;21.87;;;4.70;99.90;;;;;;5070135;28;20208;-50
2022/11/15 07:30:53;;;;;;;35.20;24.17;;;4.70;99.90;;;;;;5070826;28;20261;-53
2022/11/15 07:33:20;;;;;;;26.67;19.93;;;4.80;99.90;;;;;;5070744;28;20209;-52
2022/11/15 07:35:49;;;;;;;20.73;16.03;;;4.80;99.90;;;;;;5071335;28;20227;-52
2022/11/15 07:38:19;;;;;;;19.80;14.90;;;4.90;99.90;;;;;;5070927;28;20234;-52
2022/11/15 07:40:47;;;;;;;18.57;13.93;;;5.00;99.90;;;;;;5071361;28;20221;-51
2022/11/15 07:43:16;;;;;;;19.50;14.03;;;5.10;99.90;;;;;;5070781;28;20260;-51
2022/11/15 07:45:44;;;;;;;18.20;14.53;;;5.30;99.90;;;;;;5068583;28;20232;-51
2022/11/15 07:48:11;;;;;;;18.67;13.50;;;5.40;99.90;;;;;;5059519;28;20204;-53
2022/11/15 07:50:41;;;;;;;16.00;13.67;;;5.50;99.90;;;;;;5067367;28;20213;-52
2022/11/15 07:53:09;;;;;;;17.90;14.73;;;5.60;99.90;;;;;;5070306;28;20560;-52
2022/11/15 07:55:36;;;;;;;17.77;12.70;;;5.70;99.90;;;;;;5070004;28;20221;-52
2022/11/15 07:58:05;;;;;;;16.73;14.23;;;5.80;99.90;;;;;;5071195;28;20206;-53
2022/11/15 08:00:34;;;;;;;16.83;12.83;;;5.90;99.90;;;;;;5067014;28;20199;-53
2022/11/15 08:03:05;;;;;;;16.23;12.80;;;5.90;99.90;;;;;;5062347;28;20195;-52
2022/11/15 08:05:32;;;;;;;16.23;12.57;;;6.00;99.90;;;;;;5054084;28;20808;-52
2022/11/15 08:08:00;;;;;;;16.27;14.03;;;6.10;99.90;;;;;;5069829;28;20731;-51
2022/11/15 08:10:27;;;;;;;17.70;13.80;;;6.20;99.90;;;;;;5070934;28;20673;-51
2022/11/15 08:13:00;;;;;;;19.77;14.37;;;6.30;99.90;;;;;;5062762;28;20274;-51
2022/11/15 08:15:28;;;;;;;19.03;14.23;;;6.30;99.90;;;;;;5069086;28;20235;-51
2022/11/15 08:17:57;;;;;;;18.70;13.47;;;6.40;99.90;;;;;;5057186;28;20203;-51
2022/11/15 08:20:25;;;;;;;21.33;15.97;;;6.50;99.90;;;;;;5064813;28;20215;-53
2022/11/15 08:22:52;;;;;;;19.87;15.93;;;6.60;99.90;;;;;;5069927;28;20214;-50
2022/11/15 08:25:19;;;;;;;20.77;16.00;;;6.80;99.90;;;;;;5066751;28;20433;-54
2022/11/15 08:27:46;;;;;;;22.37;15.87;;;7.00;99.90;;;;;;5085016;28;20240;-53
2022/11/15 08:30:15;;;;;;;23.50;16.57;;;7.20;99.90;;;;;;5065201;28;20202;-52
2022/11/15 08:32:42;;;;;;;22.07;16.47;;;7.30;99.90;;;;;;5059993;28;20199;-54
2022/11/15 08:35:11;;;;;;;22.30;17.30;;;7.50;99.90;;;;;;5060771;28;20223;-52
2022/11/15 08:37:38;;;;;;;21.80;15.83;;;7.70;99.90;;;;;;5061059;28;20221;-52
2022/11/15 08:40:06;;;;;;;26.27;19.73;;;7.70;99.90;;;;;;5063212;28;20207;-52
2022/11/15 08:42:33;;;;;;;22.60;17.00;;;7.80;99.90;;;;;;5064690;28;20256;-52
2022/11/15 08:45:00;;;;;;;19.67;16.13;;;7.70;99.90;;;;;;5060230;28;20294;-51
2022/11/15 08:47:27;;;;;;;21.33;15.20;;;8.10;99.90;;;;;;5088280;22;20788;-48
2022/11/15 08:49:54;;;;;;;28.83;17.77;;;8.40;99.90;;;;;;5066187;28;20267;-49
2022/11/15 08:52:23;;;;;;;24.53;17.00;;;8.70;99.90;;;;;;5068741;28;20254;-49
2022/11/15 08:54:50;;;;;;;25.87;16.23;;;8.80;99.90;;;;;;5070118;28;20592;-49
2022/11/15 08:57:17;;;;;;;23.17;17.30;;;9.00;99.90;;;;;;5072484;28;20691;-48
2022/11/15 08:59:44;;;;;;;23.20;16.63;;;9.00;99.90;;;;;;5076577;28;20206;-48
2022/11/15 09:02:14;;;;;;;28.93;17.83;;;9.00;99.90;;;;;;5073712;28;20211;-49
2022/11/15 09:04:42;;;;;;;24.20;16.07;;;9.10;99.90;;;;;;5073885;28;20708;-48
2022/11/15 09:07:09;;;;;;;28.13;19.00;;;9.10;99.90;;;;;;5076644;28;20232;-48
2022/11/15 09:09:38;;;;;;;30.10;19.70;;;9.10;99.90;;;;;;5083426;28;20198;-48
2022/11/15 09:12:06;;;;;;;27.20;16.60;;;9.20;99.90;;;;;;5074696;28;20210;-48
2022/11/15 09:14:33;;;;;;;18.37;13.80;;;9.30;99.90;;;;;;5073915;28;20206;-50
2022/11/15 09:17:01;;;;;;;16.23;12.90;;;9.30;99.90;;;;;;5073653;28;20265;-48
2022/11/15 09:19:30;;;;;;;19.20;15.00;;;9.30;99.90;;;;;;5076600;28;20202;-49
2022/11/15 09:21:57;;;;;;;16.23;13.83;;;9.40;99.90;;;;;;5070687;28;20278;-48
2022/11/15 09:24:24;;;;;;;16.17;13.67;;;9.50;99.90;;;;;;5071326;28;20622;-48
2022/11/15 09:26:53;;;;;;;17.50;14.37;;;9.70;99.90;;;;;;5074087;28;20226;-49
2022/11/15 09:29:20;;;;;;;17.93;13.80;;;10.10;99.90;;;;;;5077475;28;20206;-48
2022/11/15 09:31:47;;;;;;;14.67;12.47;;;10.20;99.90;;;;;;5077426;28;20265;-48
2022/11/15 09:34:14;;;;;;;15.43;12.87;;;10.50;99.90;;;;;;5072732;28;20252;-48
2022/11/15 09:36:41;;;;;;;16.23;12.87;;;10.50;99.90;;;;;;5072705;28;20254;-48
2022/11/15 09:39:08;;;;;;;13.27;11.97;;;10.60;99.90;;;;;;5074062;28;20203;-47
2022/11/15 09:42:01;;;;;;;14.30;12.70;;;10.60;99.90;;;;;;5072070;28;20630;-48
2022/11/15 09:44:41;;;;;;;13.00;11.70;;;10.60;99.90;;;;;;5070395;28;20294;-49
2022/11/15 09:47:32;;;;;;;13.00;11.70;;;10.70;99.90;;;;;;5076820;28;20231;-48
2022/11/15 09:50:01;;;;;;;12.47;11.20;;;11.00;99.90;;;;;;5068513;28;20203;-48
2022/11/15 09:52:29;;;;;;;12.47;11.00;;;11.50;99.90;;;;;;5073538;28;20198;-48
2022/11/15 09:54:56;;;;;;;11.60;10.40;;;12.10;99.90;;;;;;5075890;28;20550;-48
2022/11/15 09:57:31;;;;;;;11.67;10.20;;;12.40;99.90;;;;;;5071491;28;20229;-49
2022/11/15 10:00:10;;;;;;;11.60;10.57;;;12.90;99.90;;;;;;5072574;28;20207;-48
2022/11/15 10:02:53;;;;;;;12.20;10.27;;;13.30;99.90;;;;;;5072399;28;20197;-48
2022/11/15 10:05:23;;;;;;;11.97;10.77;;;13.50;99.90;;;;;;5077297;28;20659;-48
2022/11/15 10:07:59;;;;;;;10.57;9.67;;;13.80;99.90;;;;;;5080265;28;20260;-48
2022/11/15 10:10:32;;;;;;;11.50;9.90;;;13.80;99.90;;;;;;5080781;28;20602;-49
2022/11/15 10:13:00;;;;;;;11.30;10.17;;;13.80;99.90;;;;;;5077669;28;20262;-48
2022/11/15 10:15:27;;;;;;;12.50;10.13;;;14.00;99.90;;;;;;5071151;28;20200;-48
2022/11/15 10:18:15;;;;;;;10.17;9.20;;;14.10;99.90;;;;;;5070797;28;20626;-48
2022/11/15 10:20:50;;;;;;;13.97;10.70;;;14.30;99.90;;;;;;5070384;28;20199;-48
2022/11/15 10:23:19;;;;;;;11.83;10.17;;;13.80;99.90;;;;;;5078914;28;20295;-48
2022/11/15 10:25:46;;;;;;;11.00;9.90;;;13.50;99.90;;;;;;5073158;28;20208;-48
2022/11/15 10:28:18;;;;;;;12.03;10.53;;;13.40;99.90;;;;;;5084018;28;20706;-49
2022/11/15 10:30:47;;;;;;;10.83;9.80;;;13.10;99.90;;;;;;5073353;28;20201;-49
2022/11/15 10:33:26;;;;;;;12.13;11.03;;;13.00;99.90;;;;;;5077177;28;20245;-48
2022/11/15 10:36:16;;;;;;;11.57;10.00;;;12.90;99.90;;;;;;5073636;28;20659;-49
2022/11/15 10:38:59;;;;;;;14.63;10.97;;;12.80;99.90;;;;;;5069811;28;20256;-47
2022/11/15 10:41:47;;;;;;;13.57;10.87;;;12.70;99.90;;;;;;5074699;28;20204;-48
2022/11/15 10:44:26;;;;;;;11.97;10.83;;;12.30;99.90;;;;;;5059139;28;20253;-48
2022/11/15 10:47:24;;;;;;;13.83;10.83;;;12.10;99.90;;;;;;5072315;28;20384;-48
2022/11/15 10:49:57;;;;;;;12.63;10.97;;;11.80;99.90;;;;;;5036220;28;20207;-48
2022/11/15 10:52:25;;;;;;;13.20;11.03;;;11.80;99.90;;;;;;5068323;28;20620;-48
2022/11/15 10:54:55;;;;;;;12.70;10.43;;;11.70;99.90;;;;;;5070095;28;20251;-49
2022/11/15 10:57:30;;;;;;;11.77;10.37;;;11.70;99.90;;;;;;5074024;28;20245;-48
2022/11/15 11:00:02;;;;;;;13.30;9.73;;;11.50;99.90;;;;;;5073912;28;20647;-48
2022/11/15 11:02:35;;;;;;;14.47;10.87;;;11.60;99.90;;;;;;5067393;28;20207;-48
2022/11/15 11:05:03;;;;;;;10.93;9.90;;;11.70;99.90;;;;;;5073166;28;20199;-47
2022/11/15 11:07:33;;;;;;;12.40;11.07;;;11.80;99.90;;;;;;5068618;28;20274;-48
2022/11/15 11:10:03;;;;;;;10.37;9.20;;;11.80;99.90;;;;;;5069619;28;20203;-48
2022/11/15 11:12:32;;;;;;;11.50;10.33;;;11.80;99.90;;;;;;5082275;28;20673;-48
2022/11/15 11:15:03;;;;;;;14.60;10.60;;;11.80;99.90;;;;;;5085054;28;20204;-48
2022/11/15 11:17:44;;;;;;;12.17;10.97;;;11.80;99.90;;;;;;5077867;28;20220;-48
2022/11/15 11:20:20;;;;;;;13.23;10.67;;;11.90;99.90;;;;;;5084256;28;21105;-48
2022/11/15 11:23:03;;;;;;;12.87;11.47;;;11.70;99.90;;;;;;5080298;28;20215;-48
2022/11/15 11:25:36;;;;;;;14.13;10.20;;;11.60;99.90;;;;;;5087729;28;20262;-48
2022/11/15 11:28:23;;;;;;;13.50;10.37;;;11.40;99.90;;;;;;5084771;28;20220;-48
2022/11/15 11:31:01;;;;;;;14.83;10.50;;;11.40;99.90;;;;;;5086632;28;20231;-50
2022/11/15 11:33:33;;;;;;;11.33;8.50;;;11.30;99.90;;;;;;5089598;28;20255;-48
2022/11/15 11:36:19;;;;;;;10.80;9.77;;;11.20;99.90;;;;;;5087871;28;20647;-49
2022/11/15 11:39:00;;;;;;;10.93;9.83;;;11.10;99.90;;;;;;5066082;28;20208;-48
2022/11/15 11:41:47;;;;;;;13.80;10.23;;;11.00;99.90;;;;;;5071636;28;20581;-48
2022/11/15 11:44:29;;;;;;;10.83;9.73;;;10.80;99.90;;;;;;5072926;28;20211;-48
2022/11/15 11:47:01;;;;;;;12.07;10.87;;;11.10;99.90;;;;;;5063421;28;20878;-49
2022/11/15 11:49:35;;;;;;;13.70;9.80;;;11.30;99.90;;;;;;5071470;28;20663;-49
2022/11/15 11:52:08;;;;;;;10.20;9.07;;;11.50;99.90;;;;;;5051778;28;20200;-48
2022/11/15 11:54:43;;;;;;;10.33;8.90;;;11.70;99.90;;;;;;5052606;28;20210;-48
2022/11/15 11:57:18;;;;;;;10.63;9.47;;;11.70;99.90;;;;;;5059521;28;20241;-49
2022/11/15 11:59:51;;;;;;;10.03;9.07;;;11.80;99.90;;;;;;5051385;28;20211;-49
2022/11/15 12:02:29;;;;;;;9.40;8.60;;;11.70;99.90;;;;;;5058541;28;20203;-48
2022/11/15 12:05:03;;;;;;;11.77;10.17;;;11.50;99.90;;;;;;5069855;28;20211;-48
2022/11/15 12:07:33;;;;;;;11.00;9.17;;;11.30;99.90;;;;;;5070994;28;20276;-48
2022/11/15 12:10:04;;;;;;;13.57;9.47;;;11.30;99.90;;;;;;5071111;28;20220;-48
2022/11/15 12:12:37;;;;;;;10.73;9.13;;;11.20;99.90;;;;;;5071378;28;20211;-48
2022/11/15 12:15:12;;;;;;;11.80;9.30;;;11.20;99.90;;;;;;5069337;28;20659;-48
2022/11/15 12:17:42;;;;;;;11.47;9.63;;;11.20;99.90;;;;;;5071204;28;20227;-49
2022/11/15 12:20:17;;;;;;;10.70;9.60;;;11.20;99.90;;;;;;5071118;28;20577;-49
2022/11/15 12:22:48;;;;;;;10.63;9.53;;;11.10;99.90;;;;;;5070824;28;20692;-48
2022/11/15 12:25:23;;;;;;;11.50;10.10;;;11.20;99.90;;;;;;5066985;28;20739;-50
2022/11/15 12:27:55;;;;;;;10.40;9.37;;;11.00;99.90;;;;;;5068756;28;20235;-48
2022/11/15 12:30:25;;;;;;;10.47;9.17;;;11.00;99.90;;;;;;5056143;28;20224;-48
2022/11/15 12:32:56;;;;;;;11.80;10.60;;;11.00;99.90;;;;;;5050661;28;20629;-49
2022/11/15 12:35:36;;;;;;;13.57;10.63;;;11.00;99.90;;;;;;5057660;28;20481;-50
2022/11/15 12:38:05;;;;;;;11.80;10.63;;;11.00;99.90;;;;;;5067703;28;20196;-48
2022/11/15 12:40:35;;;;;;;12.67;11.37;;;10.90;99.90;;;;;;5065854;28;20204;-50
2022/11/15 12:43:43;;;;;;;12.30;11.07;;;10.90;99.90;;;;;;5059514;28;20203;-50
2022/11/15 12:46:22;;;;;;;17.83;10.77;;;10.90;99.90;;;;;;5069744;28;20234;-49
2022/11/15 12:48:53;;;;;;;11.97;10.80;;;10.80;99.90;;;;;;5070775;28;20237;-49
2022/11/15 12:51:43;;;;;;;13.93;11.20;;;10.80;99.90;;;;;;5070440;28;20218;-49
2022/11/15 12:54:48;;;;;;;16.30;11.43;;;10.80;99.90;;;;;;5062051;28;20207;-49
2022/11/15 12:57:32;;;;;;;14.43;11.93;;;10.80;99.90;;;;;;5061993;28;20223;-49
2022/11/15 13:00:03;;;;;;;13.03;11.63;;;10.90;99.90;;;;;;5069303;28;20257;-50
2022/11/15 13:02:32;;;;;;;13.73;11.70;;;10.80;99.90;;;;;;5070675;28;20293;-49
2022/11/15 13:05:34;;;;;;;15.27;12.83;;;10.80;99.90;;;;;;5070226;28;20261;-49
2022/11/15 13:08:03;;;;;;;12.97;11.57;;;10.70;99.90;;;;;;5066159;28;20701;-48
2022/11/15 13:10:32;;;;;;;13.97;11.97;;;10.70;99.90;;;;;;5068620;28;20700;-49
2022/11/15 13:13:01;;;;;;;13.37;11.73;;;10.60;99.90;;;;;;5070186;28;20693;-48